Terminal Aerodrome Forecast
Issued by NWS Houston/Galveston TX

Home | Current Version | Previous Version | Text Only | Print | Product List | Glossary On
Versions: 1 2 3 4 5 6 7 8 9 10 11 12 13 14 15 16 17 18 19 20 21 22 23 24 25 26
000
FTUS44 KHGX 311130
TAFHOU
TAF
KHOU 311130Z 3112/0112 01006KT P6SM FEW090 SCT160 BKN250
     FM311500 03007KT P6SM SCT030 BKN250
     FM311900 06007KT P6SM VCSH BKN050
     FM010000 VRB04KT P6SM BKN250=

USA.gov is the U.S. government's official web portal to all federal, state and local government web resources and services.